sensor_id;sensor_type;location;lat;lon;timestamp;P1;durP1;ratioP1;P2;durP2;ratioP2
23680;SDS011;62915;50.832;4.462;2023-04-25T00:01:46;19.00;;;5.85;;
23680;SDS011;62915;50.832;4.462;2023-04-25T00:04:12;14.95;;;4.35;;
23680;SDS011;62915;50.832;4.462;2023-04-25T00:06:38;23.17;;;5.13;;
23680;SDS011;62915;50.832;4.462;2023-04-25T00:09:05;23.80;;;5.65;;
23680;SDS011;62915;50.832;4.462;2023-04-25T00:11:35;12.73;;;5.20;;
23680;SDS011;62915;50.832;4.462;2023-04-25T00:14:02;16.38;;;5.03;;
23680;SDS011;62915;50.832;4.462;2023-04-25T00:16:28;21.67;;;5.20;;
23680;SDS011;62915;50.832;4.462;2023-04-25T00:18:58;18.45;;;4.90;;
23680;SDS011;62915;50.832;4.462;2023-04-25T00:21:24;12.93;;;4.88;;
23680;SDS011;62915;50.832;4.462;2023-04-25T00:23:51;18.30;;;5.20;;
23680;SDS011;62915;50.832;4.462;2023-04-25T00:26:17;15.32;;;5.85;;
23680;SDS011;62915;50.832;4.462;2023-04-25T00:28:43;17.55;;;4.47;;
23680;SDS011;62915;50.832;4.462;2023-04-25T00:31:10;14.52;;;5.15;;
23680;SDS011;62915;50.832;4.462;2023-04-25T00:33:35;18.60;;;4.85;;
23680;SDS011;62915;50.832;4.462;2023-04-25T00:36:01;18.77;;;4.72;;
23680;SDS011;62915;50.832;4.462;2023-04-25T00:38:27;17.63;;;4.05;;
23680;SDS011;62915;50.832;4.462;2023-04-25T00:40:53;17.33;;;4.85;;
23680;SDS011;62915;50.832;4.462;2023-04-25T00:43:20;22.75;;;4.90;;
23680;SDS011;62915;50.832;4.462;2023-04-25T00:45:46;15.80;;;5.07;;
23680;SDS011;62915;50.832;4.462;2023-04-25T00:48:15;19.85;;;5.00;;
23680;SDS011;62915;50.832;4.462;2023-04-25T00:50:41;13.88;;;3.95;;
23680;SDS011;62915;50.832;4.462;2023-04-25T00:53:13;17.58;;;4.65;;
23680;SDS011;62915;50.832;4.462;2023-04-25T00:55:40;17.63;;;5.22;;
23680;SDS011;62915;50.832;4.462;2023-04-25T00:58:06;21.98;;;5.55;;
23680;SDS011;62915;50.832;4.462;2023-04-25T01:00:32;17.38;;;5.28;;
23680;SDS011;62915;50.832;4.462;2023-04-25T01:02:58;17.52;;;5.35;;
23680;SDS011;62915;50.832;4.462;2023-04-25T01:05:25;17.52;;;4.68;;
23680;SDS011;62915;50.832;4.462;2023-04-25T01:07:51;18.63;;;5.10;;
23680;SDS011;62915;50.832;4.462;2023-04-25T01:10:18;20.65;;;4.88;;
23680;SDS011;62915;50.832;4.462;2023-04-25T01:12:43;14.85;;;5.13;;
23680;SDS011;62915;50.832;4.462;2023-04-25T01:15:09;17.60;;;4.65;;
23680;SDS011;62915;50.832;4.462;2023-04-25T01:17:36;17.20;;;5.40;;
23680;SDS011;62915;50.832;4.462;2023-04-25T01:20:03;11.68;;;4.70;;
23680;SDS011;62915;50.832;4.462;2023-04-25T01:22:31;13.50;;;5.85;;
23680;SDS011;62915;50.832;4.462;2023-04-25T01:24:57;19.15;;;5.50;;
23680;SDS011;62915;50.832;4.462;2023-04-25T01:27:23;17.50;;;5.47;;
23680;SDS011;62915;50.832;4.462;2023-04-25T01:29:50;15.60;;;5.05;;
23680;SDS011;62915;50.832;4.462;2023-04-25T01:32:17;18.67;;;5.65;;
23680;SDS011;62915;50.832;4.462;2023-04-25T01:34:43;18.77;;;5.72;;
23680;SDS011;62915;50.832;4.462;2023-04-25T01:37:09;21.05;;;4.93;;
23680;SDS011;62915;50.832;4.462;2023-04-25T01:39:34;18.08;;;5.32;;
23680;SDS011;62915;50.832;4.462;2023-04-25T01:42:00;15.63;;;5.13;;
23680;SDS011;62915;50.832;4.462;2023-04-25T01:44:27;23.00;;;5.30;;
23680;SDS011;62915;50.832;4.462;2023-04-25T01:46:53;22.08;;;5.78;;
23680;SDS011;62915;50.832;4.462;2023-04-25T01:49:19;15.65;;;5.30;;
23680;SDS011;62915;50.832;4.462;2023-04-25T01:51:45;21.02;;;5.40;;
23680;SDS011;62915;50.832;4.462;2023-04-25T01:54:11;19.02;;;5.82;;
23680;SDS011;62915;50.832;4.462;2023-04-25T01:56:38;20.60;;;5.57;;
23680;SDS011;62915;50.832;4.462;2023-04-25T01:59:05;30.15;;;6.75;;
23680;SDS011;62915;50.832;4.462;2023-04-25T02:01:31;21.63;;;6.07;;
23680;SDS011;62915;50.832;4.462;2023-04-25T02:03:57;19.48;;;5.70;;
23680;SDS011;62915;50.832;4.462;2023-04-25T02:06:23;17.60;;;6.30;;
23680;SDS011;62915;50.832;4.462;2023-04-25T02:08:48;18.02;;;5.82;;
23680;SDS011;62915;50.832;4.462;2023-04-25T02:11:15;17.45;;;5.85;;
23680;SDS011;62915;50.832;4.462;2023-04-25T02:13:41;19.10;;;6.35;;
23680;SDS011;62915;50.832;4.462;2023-04-25T02:16:06;24.45;;;7.05;;
23680;SDS011;62915;50.832;4.462;2023-04-25T02:18:34;22.25;;;6.85;;
23680;SDS011;62915;50.832;4.462;2023-04-25T02:21:02;17.65;;;6.13;;
23680;SDS011;62915;50.832;4.462;2023-04-25T02:23:28;25.45;;;6.65;;
23680;SDS011;62915;50.832;4.462;2023-04-25T02:25:54;16.60;;;5.75;;
23680;SDS011;62915;50.832;4.462;2023-04-25T02:28:21;17.38;;;5.72;;
23680;SDS011;62915;50.832;4.462;2023-04-25T02:30:46;18.85;;;6.97;;
23680;SDS011;62915;50.832;4.462;2023-04-25T02:33:12;18.55;;;5.88;;
23680;SDS011;62915;50.832;4.462;2023-04-25T02:35:39;18.63;;;5.85;;
23680;SDS011;62915;50.832;4.462;2023-04-25T02:38:05;17.45;;;6.72;;
23680;SDS011;62915;50.832;4.462;2023-04-25T02:40:30;20.13;;;7.10;;
23680;SDS011;62915;50.832;4.462;2023-04-25T02:42:56;25.55;;;6.22;;
23680;SDS011;62915;50.832;4.462;2023-04-25T02:45:22;18.23;;;6.65;;
23680;SDS011;62915;50.832;4.462;2023-04-25T02:47:48;16.60;;;5.90;;
23680;SDS011;62915;50.832;4.462;2023-04-25T02:50:13;19.45;;;5.85;;
23680;SDS011;62915;50.832;4.462;2023-04-25T02:52:39;21.25;;;6.50;;
23680;SDS011;62915;50.832;4.462;2023-04-25T02:55:05;14.90;;;6.07;;
23680;SDS011;62915;50.832;4.462;2023-04-25T02:57:31;25.33;;;6.93;;
23680;SDS011;62915;50.832;4.462;2023-04-25T02:59:57;19.77;;;6.65;;
23680;SDS011;62915;50.832;4.462;2023-04-25T03:02:23;19.90;;;6.25;;
23680;SDS011;62915;50.832;4.462;2023-04-25T03:04:48;19.50;;;7.32;;
23680;SDS011;62915;50.832;4.462;2023-04-25T03:07:14;15.07;;;6.40;;
23680;SDS011;62915;50.832;4.462;2023-04-25T03:09:40;19.92;;;7.07;;
23680;SDS011;62915;50.832;4.462;2023-04-25T03:12:06;20.67;;;6.60;;
23680;SDS011;62915;50.832;4.462;2023-04-25T03:14:32;17.40;;;7.15;;
23680;SDS011;62915;50.832;4.462;2023-04-25T03:16:58;16.02;;;6.50;;
23680;SDS011;62915;50.832;4.462;2023-04-25T03:19:24;14.77;;;6.32;;
23680;SDS011;62915;50.832;4.462;2023-04-25T03:21:53;22.80;;;7.35;;
23680;SDS011;62915;50.832;4.462;2023-04-25T03:24:19;24.88;;;7.00;;
23680;SDS011;62915;50.832;4.462;2023-04-25T03:26:44;15.23;;;6.93;;
23680;SDS011;62915;50.832;4.462;2023-04-25T03:29:10;18.73;;;7.28;;
23680;SDS011;62915;50.832;4.462;2023-04-25T03:31:36;19.35;;;6.85;;
23680;SDS011;62915;50.832;4.462;2023-04-25T03:34:02;26.30;;;7.47;;
23680;SDS011;62915;50.832;4.462;2023-04-25T03:36:28;22.23;;;7.32;;
23680;SDS011;62915;50.832;4.462;2023-04-25T03:38:54;26.25;;;6.82;;
23680;SDS011;62915;50.832;4.462;2023-04-25T03:41:19;20.88;;;6.95;;
23680;SDS011;62915;50.832;4.462;2023-04-25T03:43:45;21.23;;;6.60;;
23680;SDS011;62915;50.832;4.462;2023-04-25T03:46:11;22.08;;;6.45;;
23680;SDS011;62915;50.832;4.462;2023-04-25T03:48:37;17.00;;;5.55;;
23680;SDS011;62915;50.832;4.462;2023-04-25T03:51:03;19.15;;;6.10;;
23680;SDS011;62915;50.832;4.462;2023-04-25T03:53:29;18.35;;;6.03;;
23680;SDS011;62915;50.832;4.462;2023-04-25T03:55:54;19.42;;;5.63;;
23680;SDS011;62915;50.832;4.462;2023-04-25T03:58:20;27.52;;;6.47;;
23680;SDS011;62915;50.832;4.462;2023-04-25T04:00:48;22.33;;;6.38;;
23680;SDS011;62915;50.832;4.462;2023-04-25T04:03:13;23.75;;;6.30;;
23680;SDS011;62915;50.832;4.462;2023-04-25T04:05:39;19.35;;;5.93;;
23680;SDS011;62915;50.832;4.462;2023-04-25T04:08:05;23.10;;;6.75;;
23680;SDS011;62915;50.832;4.462;2023-04-25T04:10:32;20.35;;;5.75;;
23680;SDS011;62915;50.832;4.462;2023-04-25T04:12:58;15.73;;;5.82;;
23680;SDS011;62915;50.832;4.462;2023-04-25T04:15:23;22.27;;;5.80;;
23680;SDS011;62915;50.832;4.462;2023-04-25T04:17:49;18.40;;;5.20;;
23680;SDS011;62915;50.832;4.462;2023-04-25T04:20:15;24.00;;;6.50;;
23680;SDS011;62915;50.832;4.462;2023-04-25T04:22:41;18.90;;;5.55;;
23680;SDS011;62915;50.832;4.462;2023-04-25T04:25:07;19.23;;;5.10;;
23680;SDS011;62915;50.832;4.462;2023-04-25T04:27:33;18.63;;;5.80;;
23680;SDS011;62915;50.832;4.462;2023-04-25T04:29:59;22.55;;;6.28;;
23680;SDS011;62915;50.832;4.462;2023-04-25T04:32:25;18.80;;;5.68;;
23680;SDS011;62915;50.832;4.462;2023-04-25T04:34:52;16.92;;;4.68;;
23680;SDS011;62915;50.832;4.462;2023-04-25T04:37:20;10.45;;;4.88;;
23680;SDS011;62915;50.832;4.462;2023-04-25T04:39:45;22.60;;;5.18;;
23680;SDS011;62915;50.832;4.462;2023-04-25T04:42:12;16.73;;;5.53;;
23680;SDS011;62915;50.832;4.462;2023-04-25T04:44:37;14.23;;;5.03;;
23680;SDS011;62915;50.832;4.462;2023-04-25T04:47:04;13.82;;;4.97;;
23680;SDS011;62915;50.832;4.462;2023-04-25T04:49:31;13.52;;;5.35;;
23680;SDS011;62915;50.832;4.462;2023-04-25T04:51:57;19.00;;;5.30;;
23680;SDS011;62915;50.832;4.462;2023-04-25T04:54:25;17.60;;;5.82;;
23680;SDS011;62915;50.832;4.462;2023-04-25T04:56:50;15.77;;;4.68;;
23680;SDS011;62915;50.832;4.462;2023-04-25T04:59:17;17.40;;;5.43;;
23680;SDS011;62915;50.832;4.462;2023-04-25T05:01:43;16.30;;;5.25;;
23680;SDS011;62915;50.832;4.462;2023-04-25T05:04:09;13.98;;;5.55;;
23680;SDS011;62915;50.832;4.462;2023-04-25T05:06:34;14.40;;;5.05;;
23680;SDS011;62915;50.832;4.462;2023-04-25T05:09:00;14.23;;;4.95;;
23680;SDS011;62915;50.832;4.462;2023-04-25T05:11:26;14.05;;;5.30;;
23680;SDS011;62915;50.832;4.462;2023-04-25T05:13:52;18.98;;;5.70;;
23680;SDS011;62915;50.832;4.462;2023-04-25T05:16:18;16.35;;;6.30;;
23680;SDS011;62915;50.832;4.462;2023-04-25T05:18:44;17.42;;;5.15;;
23680;SDS011;62915;50.832;4.462;2023-04-25T05:21:10;18.23;;;6.57;;
23680;SDS011;62915;50.832;4.462;2023-04-25T05:23:37;19.23;;;6.60;;
23680;SDS011;62915;50.832;4.462;2023-04-25T05:26:03;16.38;;;6.20;;
23680;SDS011;62915;50.832;4.462;2023-04-25T05:28:29;11.90;;;5.95;;
23680;SDS011;62915;50.832;4.462;2023-04-25T05:30:55;17.05;;;5.82;;
23680;SDS011;62915;50.832;4.462;2023-04-25T05:33:21;15.30;;;5.65;;
23680;SDS011;62915;50.832;4.462;2023-04-25T05:35:48;18.63;;;5.78;;
23680;SDS011;62915;50.832;4.462;2023-04-25T05:38:15;17.23;;;5.53;;
23680;SDS011;62915;50.832;4.462;2023-04-25T05:40:41;13.27;;;5.70;;
23680;SDS011;62915;50.832;4.462;2023-04-25T05:43:06;15.65;;;5.05;;
23680;SDS011;62915;50.832;4.462;2023-04-25T05:45:32;18.73;;;6.20;;
23680;SDS011;62915;50.832;4.462;2023-04-25T05:47:58;20.80;;;5.85;;
23680;SDS011;62915;50.832;4.462;2023-04-25T05:50:25;20.02;;;6.03;;
23680;SDS011;62915;50.832;4.462;2023-04-25T05:52:51;13.77;;;5.28;;
23680;SDS011;62915;50.832;4.462;2023-04-25T05:55:17;16.00;;;6.13;;
23680;SDS011;62915;50.832;4.462;2023-04-25T05:57:42;20.15;;;6.13;;
23680;SDS011;62915;50.832;4.462;2023-04-25T06:00:11;16.25;;;5.30;;
23680;SDS011;62915;50.832;4.462;2023-04-25T06:02:38;8.95;;;4.78;;
23680;SDS011;62915;50.832;4.462;2023-04-25T06:05:04;14.50;;;5.25;;
23680;SDS011;62915;50.832;4.462;2023-04-25T06:07:30;14.10;;;5.40;;
23680;SDS011;62915;50.832;4.462;2023-04-25T06:09:56;15.98;;;5.40;;
23680;SDS011;62915;50.832;4.462;2023-04-25T06:12:22;14.63;;;5.40;;
23680;SDS011;62915;50.832;4.462;2023-04-25T06:14:48;13.73;;;5.78;;
23680;SDS011;62915;50.832;4.462;2023-04-25T06:17:13;23.30;;;6.40;;
23680;SDS011;62915;50.832;4.462;2023-04-25T06:19:39;19.33;;;6.05;;
23680;SDS011;62915;50.832;4.462;2023-04-25T06:22:05;14.48;;;5.35;;
23680;SDS011;62915;50.832;4.462;2023-04-25T06:24:32;20.00;;;6.07;;
23680;SDS011;62915;50.832;4.462;2023-04-25T06:26:58;18.15;;;6.53;;
23680;SDS011;62915;50.832;4.462;2023-04-25T06:29:24;20.58;;;6.47;;
23680;SDS011;62915;50.832;4.462;2023-04-25T06:31:50;20.42;;;6.50;;
23680;SDS011;62915;50.832;4.462;2023-04-25T06:34:16;21.67;;;6.93;;
23680;SDS011;62915;50.832;4.462;2023-04-25T06:36:42;20.38;;;6.38;;
23680;SDS011;62915;50.832;4.462;2023-04-25T06:39:09;21.33;;;7.63;;
23680;SDS011;62915;50.832;4.462;2023-04-25T06:41:35;21.95;;;7.03;;
23680;SDS011;62915;50.832;4.462;2023-04-25T06:44:01;22.85;;;7.55;;
23680;SDS011;62915;50.832;4.462;2023-04-25T06:46:27;15.18;;;7.15;;
23680;SDS011;62915;50.832;4.462;2023-04-25T06:48:53;20.58;;;6.80;;
23680;SDS011;62915;50.832;4.462;2023-04-25T06:51:23;17.70;;;7.07;;
23680;SDS011;62915;50.832;4.462;2023-04-25T06:53:49;20.42;;;7.25;;
23680;SDS011;62915;50.832;4.462;2023-04-25T06:56:15;18.35;;;7.45;;
23680;SDS011;62915;50.832;4.462;2023-04-25T06:58:41;15.45;;;6.75;;
23680;SDS011;62915;50.832;4.462;2023-04-25T07:01:07;24.33;;;7.95;;
23680;SDS011;62915;50.832;4.462;2023-04-25T07:03:33;20.58;;;7.20;;
23680;SDS011;62915;50.832;4.462;2023-04-25T07:05:58;18.35;;;7.60;;
23680;SDS011;62915;50.832;4.462;2023-04-25T07:08:24;22.42;;;6.50;;
23680;SDS011;62915;50.832;4.462;2023-04-25T07:10:50;22.05;;;6.47;;
23680;SDS011;62915;50.832;4.462;2023-04-25T07:13:16;16.38;;;6.93;;
23680;SDS011;62915;50.832;4.462;2023-04-25T07:15:42;16.52;;;6.22;;
23680;SDS011;62915;50.832;4.462;2023-04-25T07:18:09;17.75;;;6.20;;
23680;SDS011;62915;50.832;4.462;2023-04-25T07:20:35;17.42;;;6.32;;
23680;SDS011;62915;50.832;4.462;2023-04-25T07:23:01;20.52;;;5.03;;
23680;SDS011;62915;50.832;4.462;2023-04-25T07:25:27;17.08;;;6.15;;
23680;SDS011;62915;50.832;4.462;2023-04-25T07:27:53;18.88;;;5.88;;
23680;SDS011;62915;50.832;4.462;2023-04-25T07:30:19;15.35;;;5.78;;
23680;SDS011;62915;50.832;4.462;2023-04-25T07:32:44;24.65;;;5.85;;
23680;SDS011;62915;50.832;4.462;2023-04-25T07:35:10;15.82;;;4.65;;
23680;SDS011;62915;50.832;4.462;2023-04-25T07:37:36;15.25;;;5.10;;
23680;SDS011;62915;50.832;4.462;2023-04-25T07:40:02;16.40;;;4.88;;
23680;SDS011;62915;50.832;4.462;2023-04-25T07:42:33;17.05;;;4.78;;
23680;SDS011;62915;50.832;4.462;2023-04-25T07:44:59;15.20;;;5.00;;
23680;SDS011;62915;50.832;4.462;2023-04-25T07:47:25;13.88;;;4.00;;
23680;SDS011;62915;50.832;4.462;2023-04-25T07:49:51;16.42;;;4.10;;
23680;SDS011;62915;50.832;4.462;2023-04-25T07:52:17;13.23;;;3.97;;
23680;SDS011;62915;50.832;4.462;2023-04-25T07:54:43;10.77;;;3.85;;
23680;SDS011;62915;50.832;4.462;2023-04-25T07:57:08;15.45;;;4.43;;
23680;SDS011;62915;50.832;4.462;2023-04-25T07:59:34;13.98;;;4.00;;
23680;SDS011;62915;50.832;4.462;2023-04-25T08:02:00;14.88;;;3.95;;
23680;SDS011;62915;50.832;4.462;2023-04-25T08:04:26;10.40;;;4.40;;
23680;SDS011;62915;50.832;4.462;2023-04-25T08:06:52;14.70;;;4.20;;
23680;SDS011;62915;50.832;4.462;2023-04-25T08:09:19;11.52;;;3.97;;
23680;SDS011;62915;50.832;4.462;2023-04-25T08:11:45;16.48;;;4.72;;
23680;SDS011;62915;50.832;4.462;2023-04-25T08:14:11;13.65;;;4.13;;
23680;SDS011;62915;50.832;4.462;2023-04-25T08:16:37;14.85;;;3.85;;
23680;SDS011;62915;50.832;4.462;2023-04-25T08:19:03;13.50;;;4.20;;
23680;SDS011;62915;50.832;4.462;2023-04-25T08:21:30;17.40;;;4.03;;
23680;SDS011;62915;50.832;4.462;2023-04-25T08:23:56;16.05;;;4.50;;
23680;SDS011;62915;50.832;4.462;2023-04-25T08:26:23;19.08;;;3.97;;
23680;SDS011;62915;50.832;4.462;2023-04-25T08:28:49;14.98;;;3.97;;
23680;SDS011;62915;50.832;4.462;2023-04-25T08:31:15;13.20;;;3.45;;
23680;SDS011;62915;50.832;4.462;2023-04-25T08:33:41;12.70;;;3.97;;
23680;SDS011;62915;50.832;4.462;2023-04-25T08:36:07;16.38;;;4.32;;
23680;SDS011;62915;50.832;4.462;2023-04-25T08:38:33;14.30;;;4.28;;
23680;SDS011;62915;50.832;4.462;2023-04-25T08:40:59;14.35;;;4.57;;
23680;SDS011;62915;50.832;4.462;2023-04-25T08:43:28;10.80;;;4.22;;
23680;SDS011;62915;50.832;4.462;2023-04-25T08:45:58;14.10;;;3.40;;
23680;SDS011;62915;50.832;4.462;2023-04-25T08:48:26;14.20;;;3.10;;
23680;SDS011;62915;50.832;4.462;2023-04-25T08:50:54;12.55;;;3.65;;
23680;SDS011;62915;50.832;4.462;2023-04-25T08:53:28;10.82;;;3.72;;
23680;SDS011;62915;50.832;4.462;2023-04-25T08:55:57;16.38;;;3.70;;
23680;SDS011;62915;50.832;4.462;2023-04-25T08:58:24;9.57;;;3.55;;
23680;SDS011;62915;50.832;4.462;2023-04-25T09:00:50;12.35;;;3.65;;
23680;SDS011;62915;50.832;4.462;2023-04-25T09:03:17;12.55;;;3.30;;
23680;SDS011;62915;50.832;4.462;2023-04-25T09:05:43;7.90;;;2.97;;
23680;SDS011;62915;50.832;4.462;2023-04-25T09:08:09;14.77;;;3.17;;
23680;SDS011;62915;50.832;4.462;2023-04-25T09:10:35;10.00;;;3.13;;
23680;SDS011;62915;50.832;4.462;2023-04-25T09:13:12;9.90;;;3.03;;
23680;SDS011;62915;50.832;4.462;2023-04-25T09:15:49;10.27;;;3.13;;
23680;SDS011;62915;50.832;4.462;2023-04-25T09:18:23;15.35;;;4.10;;
23680;SDS011;62915;50.832;4.462;2023-04-25T09:20:57;8.18;;;3.28;;
23680;SDS011;62915;50.832;4.462;2023-04-25T09:23:44;10.02;;;3.72;;
23680;SDS011;62915;50.832;4.462;2023-04-25T09:26:15;14.40;;;4.18;;
23680;SDS011;62915;50.832;4.462;2023-04-25T09:28:42;9.82;;;3.13;;
23680;SDS011;62915;50.832;4.462;2023-04-25T09:31:09;12.10;;;4.10;;
23680;SDS011;62915;50.832;4.462;2023-04-25T09:33:36;11.70;;;3.45;;
23680;SDS011;62915;50.832;4.462;2023-04-25T09:36:06;13.38;;;3.63;;
23680;SDS011;62915;50.832;4.462;2023-04-25T09:38:41;9.57;;;3.03;;
23680;SDS011;62915;50.832;4.462;2023-04-25T09:43:35;15.73;;;3.20;;
23680;SDS011;62915;50.832;4.462;2023-04-25T09:46:00;12.77;;;2.60;;
23680;SDS011;62915;50.832;4.462;2023-04-25T09:48:27;6.40;;;2.33;;
23680;SDS011;62915;50.832;4.462;2023-04-25T09:53:36;9.77;;;2.78;;
23680;SDS011;62915;50.832;4.462;2023-04-25T09:56:07;8.27;;;2.67;;
23680;SDS011;62915;50.832;4.462;2023-04-25T09:58:34;5.82;;;2.53;;
23680;SDS011;62915;50.832;4.462;2023-04-25T10:01:03;8.35;;;3.58;;
23680;SDS011;62915;50.832;4.462;2023-04-25T10:03:33;9.13;;;3.80;;
23680;SDS011;62915;50.832;4.462;2023-04-25T10:06:01;7.05;;;2.70;;
23680;SDS011;62915;50.832;4.462;2023-04-25T10:08:32;9.13;;;3.05;;
23680;SDS011;62915;50.832;4.462;2023-04-25T10:11:06;12.80;;;2.55;;
23680;SDS011;62915;50.832;4.462;2023-04-25T10:13:34;12.30;;;2.55;;
23680;SDS011;62915;50.832;4.462;2023-04-25T10:16:01;6.18;;;3.03;;
23680;SDS011;62915;50.832;4.462;2023-04-25T10:18:29;13.75;;;2.78;;
23680;SDS011;62915;50.832;4.462;2023-04-25T10:20:56;11.13;;;3.15;;
23680;SDS011;62915;50.832;4.462;2023-04-25T10:23:26;12.50;;;3.33;;
23680;SDS011;62915;50.832;4.462;2023-04-25T10:25:54;12.95;;;3.30;;
23680;SDS011;62915;50.832;4.462;2023-04-25T10:28:20;11.93;;;2.30;;
23680;SDS011;62915;50.832;4.462;2023-04-25T10:31:07;8.55;;;2.63;;
23680;SDS011;62915;50.832;4.462;2023-04-25T10:33:37;7.47;;;2.83;;
23680;SDS011;62915;50.832;4.462;2023-04-25T10:36:10;12.52;;;2.42;;
23680;SDS011;62915;50.832;4.462;2023-04-25T10:38:44;4.97;;;2.33;;
23680;SDS011;62915;50.832;4.462;2023-04-25T10:41:11;7.35;;;2.25;;
23680;SDS011;62915;50.832;4.462;2023-04-25T10:46:15;8.40;;;1.95;;
23680;SDS011;62915;50.832;4.462;2023-04-25T10:49:01;6.22;;;2.65;;
23680;SDS011;62915;50.832;4.462;2023-04-25T10:51:28;4.03;;;2.03;;
23680;SDS011;62915;50.832;4.462;2023-04-25T10:53:59;6.38;;;2.00;;
23680;SDS011;62915;50.832;4.462;2023-04-25T10:59:10;3.60;;;1.33;;
23680;SDS011;62915;50.832;4.462;2023-04-25T11:01:42;9.35;;;2.00;;
23680;SDS011;62915;50.832;4.462;2023-04-25T11:04:19;7.82;;;2.05;;
23680;SDS011;62915;50.832;4.462;2023-04-25T11:09:36;21.08;;;2.70;;
23680;SDS011;62915;50.832;4.462;2023-04-25T11:12:06;6.20;;;1.88;;
23680;SDS011;62915;50.832;4.462;2023-04-25T11:14:33;10.35;;;2.53;;
23680;SDS011;62915;50.832;4.462;2023-04-25T11:16:59;11.82;;;2.83;;
23680;SDS011;62915;50.832;4.462;2023-04-25T11:19:27;14.45;;;2.85;;
23680;SDS011;62915;50.832;4.462;2023-04-25T11:21:57;7.82;;;2.53;;
23680;SDS011;62915;50.832;4.462;2023-04-25T11:24:25;12.05;;;2.42;;
23680;SDS011;62915;50.832;4.462;2023-04-25T11:26:54;14.18;;;2.35;;
23680;SDS011;62915;50.832;4.462;2023-04-25T11:29:28;9.45;;;1.98;;
23680;SDS011;62915;50.832;4.462;2023-04-25T11:31:57;8.10;;;2.05;;
23680;SDS011;62915;50.832;4.462;2023-04-25T11:34:23;9.70;;;2.22;;
23680;SDS011;62915;50.832;4.462;2023-04-25T11:36:50;11.98;;;2.03;;
23680;SDS011;62915;50.832;4.462;2023-04-25T11:39:19;6.07;;;2.08;;
23680;SDS011;62915;50.832;4.462;2023-04-25T11:41:46;9.20;;;2.30;;
23680;SDS011;62915;50.832;4.462;2023-04-25T11:44:12;8.27;;;2.30;;
23680;SDS011;62915;50.832;4.462;2023-04-25T11:46:41;10.73;;;1.73;;
23680;SDS011;62915;50.832;4.462;2023-04-25T11:49:08;8.63;;;2.00;;
23680;SDS011;62915;50.832;4.462;2023-04-25T11:51:43;11.02;;;2.25;;
23680;SDS011;62915;50.832;4.462;2023-04-25T11:54:11;6.35;;;1.77;;
23680;SDS011;62915;50.832;4.462;2023-04-25T11:56:41;9.23;;;2.00;;
23680;SDS011;62915;50.832;4.462;2023-04-25T11:59:11;8.48;;;1.75;;
23680;SDS011;62915;50.832;4.462;2023-04-25T12:01:38;8.10;;;1.70;;
23680;SDS011;62915;50.832;4.462;2023-04-25T12:04:12;7.03;;;2.42;;
23680;SDS011;62915;50.832;4.462;2023-04-25T12:06:42;8.43;;;2.22;;
23680;SDS011;62915;50.832;4.462;2023-04-25T12:09:11;9.18;;;1.92;;
23680;SDS011;62915;50.832;4.462;2023-04-25T12:11:45;4.15;;;1.70;;
23680;SDS011;62915;50.832;4.462;2023-04-25T12:14:27;7.93;;;1.90;;
23680;SDS011;62915;50.832;4.462;2023-04-25T12:16:58;5.55;;;1.98;;
23680;SDS011;62915;50.832;4.462;2023-04-25T12:19:25;5.43;;;1.65;;
23680;SDS011;62915;50.832;4.462;2023-04-25T12:21:56;6.22;;;1.77;;
23680;SDS011;62915;50.832;4.462;2023-04-25T12:24:23;9.60;;;1.73;;
23680;SDS011;62915;50.832;4.462;2023-04-25T12:27:01;4.28;;;1.60;;
23680;SDS011;62915;50.832;4.462;2023-04-25T12:29:29;6.03;;;1.92;;
23680;SDS011;62915;50.832;4.462;2023-04-25T12:31:57;7.72;;;2.22;;
23680;SDS011;62915;50.832;4.462;2023-04-25T12:34:23;6.35;;;1.67;;
23680;SDS011;62915;50.832;4.462;2023-04-25T12:36:49;5.65;;;1.67;;
23680;SDS011;62915;50.832;4.462;2023-04-25T12:41:45;5.82;;;1.48;;
23680;SDS011;62915;50.832;4.462;2023-04-25T12:44:11;4.60;;;1.20;;
23680;SDS011;62915;50.832;4.462;2023-04-25T12:46:38;7.03;;;1.40;;
23680;SDS011;62915;50.832;4.462;2023-04-25T12:49:06;7.63;;;1.60;;
23680;SDS011;62915;50.832;4.462;2023-04-25T12:51:33;3.85;;;1.40;;
23680;SDS011;62915;50.832;4.462;2023-04-25T12:54:03;3.50;;;1.27;;
23680;SDS011;62915;50.832;4.462;2023-04-25T12:56:30;3.78;;;1.30;;
23680;SDS011;62915;50.832;4.462;2023-04-25T12:58:56;4.47;;;1.05;;
23680;SDS011;62915;50.832;4.462;2023-04-25T13:01:23;1.98;;;1.05;;
23680;SDS011;62915;50.832;4.462;2023-04-25T13:03:49;4.25;;;1.15;;
23680;SDS011;62915;50.832;4.462;2023-04-25T13:06:16;4.28;;;1.45;;
23680;SDS011;62915;50.832;4.462;2023-04-25T13:08:43;3.08;;;1.10;;
23680;SDS011;62915;50.832;4.462;2023-04-25T13:11:09;3.65;;;1.38;;
23680;SDS011;62915;50.832;4.462;2023-04-25T13:13:35;7.05;;;1.88;;
23680;SDS011;62915;50.832;4.462;2023-04-25T13:16:01;11.27;;;1.77;;
23680;SDS011;62915;50.832;4.462;2023-04-25T13:18:28;6.03;;;1.70;;
23680;SDS011;62915;50.832;4.462;2023-04-25T13:20:55;6.75;;;1.40;;
23680;SDS011;62915;50.832;4.462;2023-04-25T13:23:21;7.32;;;2.08;;
23680;SDS011;62915;50.832;4.462;2023-04-25T13:25:47;5.30;;;1.30;;
23680;SDS011;62915;50.832;4.462;2023-04-25T13:28:13;7.38;;;1.83;;
23680;SDS011;62915;50.832;4.462;2023-04-25T13:30:40;6.40;;;1.80;;
23680;SDS011;62915;50.832;4.462;2023-04-25T13:33:06;7.57;;;1.65;;
23680;SDS011;62915;50.832;4.462;2023-04-25T13:35:32;4.80;;;1.80;;
23680;SDS011;62915;50.832;4.462;2023-04-25T13:37:59;4.72;;;1.98;;
23680;SDS011;62915;50.832;4.462;2023-04-25T13:40:26;4.82;;;1.58;;
23680;SDS011;62915;50.832;4.462;2023-04-25T13:42:52;6.07;;;1.52;;
23680;SDS011;62915;50.832;4.462;2023-04-25T13:45:18;3.90;;;1.40;;
23680;SDS011;62915;50.832;4.462;2023-04-25T13:47:45;4.85;;;1.67;;
23680;SDS011;62915;50.832;4.462;2023-04-25T13:50:11;3.80;;;1.40;;
23680;SDS011;62915;50.832;4.462;2023-04-25T13:52:37;9.73;;;1.73;;
23680;SDS011;62915;50.832;4.462;2023-04-25T13:55:03;5.47;;;1.40;;
23680;SDS011;62915;50.832;4.462;2023-04-25T13:57:31;7.20;;;1.65;;
23680;SDS011;62915;50.832;4.462;2023-04-25T13:59:58;6.10;;;1.30;;
23680;SDS011;62915;50.832;4.462;2023-04-25T14:02:24;5.07;;;1.40;;
23680;SDS011;62915;50.832;4.462;2023-04-25T14:04:51;2.95;;;1.40;;
23680;SDS011;62915;50.832;4.462;2023-04-25T14:07:16;7.25;;;1.77;;
23680;SDS011;62915;50.832;4.462;2023-04-25T14:09:44;4.85;;;1.30;;
23680;SDS011;62915;50.832;4.462;2023-04-25T14:12:10;8.73;;;1.30;;
23680;SDS011;62915;50.832;4.462;2023-04-25T14:14:36;8.65;;;2.05;;
23680;SDS011;62915;50.832;4.462;2023-04-25T14:17:02;5.25;;;1.48;;
23680;SDS011;62915;50.832;4.462;2023-04-25T14:19:28;4.03;;;1.70;;
23680;SDS011;62915;50.832;4.462;2023-04-25T14:21:54;7.25;;;1.95;;
23680;SDS011;62915;50.832;4.462;2023-04-25T14:24:20;3.03;;;1.25;;
23680;SDS011;62915;50.832;4.462;2023-04-25T14:26:46;5.95;;;1.48;;
23680;SDS011;62915;50.832;4.462;2023-04-25T14:29:12;4.22;;;1.48;;
23680;SDS011;62915;50.832;4.462;2023-04-25T14:31:38;5.18;;;1.33;;
23680;SDS011;62915;50.832;4.462;2023-04-25T14:34:05;4.28;;;1.20;;
23680;SDS011;62915;50.832;4.462;2023-04-25T14:36:31;7.75;;;1.63;;
23680;SDS011;62915;50.832;4.462;2023-04-25T14:38:58;3.35;;;1.05;;
23680;SDS011;62915;50.832;4.462;2023-04-25T14:41:24;3.65;;;1.48;;
23680;SDS011;62915;50.832;4.462;2023-04-25T14:43:51;4.13;;;1.60;;
23680;SDS011;62915;50.832;4.462;2023-04-25T14:46:18;7.38;;;1.60;;
23680;SDS011;62915;50.832;4.462;2023-04-25T14:48:44;4.25;;;1.50;;
23680;SDS011;62915;50.832;4.462;2023-04-25T14:51:10;5.18;;;1.33;;
23680;SDS011;62915;50.832;4.462;2023-04-25T14:53:36;4.93;;;1.10;;